GB-0062 weather

Branscombe Airfield
Branscombe, England, United Kingdom

Public forecast

Using degrees Celsius for public forecast. Weather courtesy of forecast.io.

Closest aviation weather report (METAR) to Branscombe Airfield

Closest report is Exeter International Airport, 10.1 nm (18.7 km) WNW. Retrieved 2020/08/06 09:20 UTC (3 minutes ago):

EGTE 060920Z 14006KT 110V170 5000 2000E BR FEW002 BKN003 18/18 Q1016

Closest aviation forecast (TAF) to Branscombe Airfield

Forecast is more than 12 hours old.

Closest forecast is Exeter International Airport, 10.1 nm (18.7 km) WNW. Retrieved 2012/04/19 12:15 UTC (8 years ago):

TAF TAF EGTE 191401Z 1912/1924 31016KT 9999 SCT030 SCT035 PROB40 TEMPO 1915/1918 7000 SHRA BKN014